Time;durP1;ratioP1;P1;durP2;ratioP2;P2;SDS_P1;SDS_P2;PMS_P1;PMS_P2;Temp;Humidity;BMP_temperature;BMP_pressure;BME280_temperature;BME280_humidity;BME280_pressure;Samples;Min_cycle;Max_cycle;Signal;HPM_P1;HPM_P2
2022/01/05 00:00:16;;;;;;;0.63;0.44;;;;;;;5.66;96.96;97718.09;2000327;80;20383;-72
2022/01/05 00:03:18;;;;;;;2.94;0.50;;;;;;;5.69;97.13;97716.31;2005374;80;48923;-72
2022/01/05 00:06:21;;;;;;;1.63;0.44;;;;;;;5.70;97.13;97714.59;2006097;80;20303;-72
2022/01/05 00:09:24;;;;;;;1.01;0.50;;;;;;;5.74;97.67;97718.84;2006344;80;21323;-71
2022/01/05 00:12:26;;;;;;;2.81;0.40;;;;;;;5.78;97.76;97705.06;2005900;80;20841;-71
2022/01/05 00:15:29;;;;;;;1.38;0.40;;;;;;;5.82;97.81;97698.16;2004667;78;20548;-72
2022/01/05 00:18:32;;;;;;;0.96;0.31;;;;;;;5.85;97.86;97692.97;2006644;80;20331;-71
2022/01/05 00:21:35;;;;;;;0.81;0.47;;;;;;;5.89;97.88;97697.19;2006306;80;20337;-72
2022/01/05 00:24:37;;;;;;;1.08;0.47;;;;;;;5.93;97.92;97693.75;2006431;80;20354;-71
2022/01/05 00:27:40;;;;;;;2.90;0.50;;;;;;;5.96;97.86;97691.13;2005431;80;20335;-72
2022/01/05 00:30:42;;;;;;;1.42;0.50;;;;;;;5.97;97.78;97690.28;2004392;77;20363;-72
2022/01/05 00:33:45;;;;;;;1.17;0.43;;;;;;;5.97;97.76;97688.53;2070597;69;20377;-72
2022/01/05 00:36:48;;;;;;;2.76;0.52;;;;;;;5.99;97.70;97686.78;2001444;81;20397;-72
2022/01/05 00:39:51;;;;;;;2.31;0.54;;;;;;;6.03;97.76;97696.19;2002815;81;21212;-72
2022/01/05 00:42:53;;;;;;;1.25;0.59;;;;;;;6.04;97.77;97692.72;2003044;81;21170;-73
2022/01/05 00:45:57;;;;;;;1.06;0.63;;;;;;;6.07;97.71;97690.09;2003085;77;21333;-72
2022/01/05 00:49:00;;;;;;;3.03;0.50;;;;;;;6.08;97.51;97696.09;2007012;80;20898;-72
2022/01/05 00:52:03;;;;;;;3.76;1.42;;;;;;;6.07;97.42;97708.13;2007760;80;20380;-72
2022/01/05 00:55:06;;;;;;;1.30;0.46;;;;;;;6.09;97.23;97720.16;2008295;80;20376;-72
2022/01/05 00:58:09;;;;;;;0.50;0.50;;;;;;;6.11;97.01;97739.88;2008024;80;20396;-72
2022/01/05 01:01:11;;;;;;;1.10;0.40;;;;;;;6.09;96.82;97731.31;2004075;78;24788;-72
2022/01/05 01:04:14;;;;;;;1.94;0.60;;;;;;;6.11;96.40;97719.28;2002154;81;20328;-72
2022/01/05 01:07:17;;;;;;;1.49;0.52;;;;;;;6.11;96.05;97721.84;2002050;80;20457;-72
2022/01/05 01:10:19;;;;;;;1.16;0.56;;;;;;;6.08;95.78;97716.72;2002034;81;20370;-71
2022/01/05 01:13:22;;;;;;;2.40;0.60;;;;;;;6.04;95.60;97712.47;2002244;81;21288;-71
2022/01/05 01:16:24;;;;;;;1.42;0.50;;;;;;;6.00;95.46;97726.28;2002619;77;20971;-72
2022/01/05 01:19:28;;;;;;;0.94;0.39;;;;;;;5.96;95.06;97735.78;2007898;80;20343;-72
2022/01/05 01:22:32;;;;;;;0.73;0.39;;;;;;;5.94;94.80;97734.97;2008730;80;20814;-72
2022/01/05 01:25:35;;;;;;;0.73;0.40;;;;;;;5.92;95.05;97746.13;2007416;80;20348;-72
2022/01/05 01:28:38;;;;;;;0.30;0.30;;;;;;;5.91;95.19;97744.41;2007585;80;20393;-72
2022/01/05 01:31:41;;;;;;;0.74;0.40;;;;;;;5.90;95.36;97751.28;2006043;77;20426;-72
2022/01/05 01:34:43;;;;;;;1.50;0.63;;;;;;;5.88;94.97;97763.31;2007113;80;20454;-72
2022/01/05 01:37:46;;;;;;;2.01;0.54;;;;;;;5.83;94.92;97793.44;2007190;80;20316;-72
2022/01/05 01:40:49;;;;;;;1.14;0.20;;;;;;;5.81;95.08;97820.94;2007574;80;20365;-71
2022/01/05 01:43:52;;;;;;;0.25;0.20;;;;;;;5.70;93.79;97846.78;2007181;80;20335;-72
2022/01/05 01:46:55;;;;;;;0.20;0.20;;;;;;;5.61;93.21;97858.91;2005731;77;21358;-72
2022/01/05 01:49:57;;;;;;;0.36;0.10;;;;;;;5.51;92.49;97872.72;2007205;80;20450;-72
2022/01/05 01:53:00;;;;;;;0.10;0.10;;;;;;;5.40;91.69;97881.41;2003608;80;20880;-72
2022/01/05 01:56:04;;;;;;;0.14;0.10;;;;;;;5.26;90.51;97898.66;2007724;80;20380;-72
2022/01/05 01:59:07;;;;;;;1.54;0.10;;;;;;;5.11;89.46;97916.78;2007318;80;20323;-73
2022/01/05 02:02:10;;;;;;;0.73;0.10;;;;;;;4.95;88.61;97921.16;2006099;77;21119;-72
2022/01/05 02:05:13;;;;;;;0.17;0.10;;;;;;;4.82;88.45;97934.94;2006896;80;20347;-72
2022/01/05 02:08:15;;;;;;;0.44;0.20;;;;;;;4.70;88.47;97933.28;2003660;80;20808;-72
2022/01/05 02:11:18;;;;;;;0.69;0.25;;;;;;;4.60;88.79;97941.88;2007217;80;20347;-72
2022/01/05 02:14:21;;;;;;;1.04;0.10;;;;;;;4.54;88.83;97936.78;2007604;80;20426;-73
2022/01/05 02:17:40;;;;;;;0.10;0.10;;;;;;;4.47;88.44;97935.94;2001853;78;22886;-72
2022/01/05 02:20:46;;;;;;;0.60;0.14;;;;;;;4.41;88.58;97930.81;2002236;81;20808;-73
2022/01/05 02:23:49;;;;;;;0.10;0.10;;;;;;;4.30;88.45;97927.44;2001695;81;20414;-73
2022/01/05 02:26:51;;;;;;;0.44;0.10;;;;;;;4.27;88.68;97945.44;2002244;81;20398;-73
2022/01/05 02:29:54;;;;;;;0.20;0.20;;;;;;;4.21;88.70;97942.88;2001949;81;20364;-73
2022/01/05 02:32:57;;;;;;;0.10;0.10;;;;;;;4.13;88.01;97955.75;1996652;78;24320;-73
2022/01/05 02:36:01;;;;;;;0.10;0.10;;;;;;;4.06;87.94;97966.03;2002693;81;20381;-73
2022/01/05 02:39:04;;;;;;;0.10;0.10;;;;;;;4.05;88.68;97984.88;2002561;81;20356;-73
2022/01/05 02:42:07;;;;;;;0.54;0.10;;;;;;;4.07;89.40;97970.31;2001548;81;20328;-73
2022/01/05 02:45:11;;;;;;;0.10;0.10;;;;;;;4.10;90.03;97990.84;2001143;80;20328;-73
2022/01/05 02:48:14;;;;;;;0.13;0.13;;;;;;;4.08;89.90;97995.13;2001946;77;21014;-73
2022/01/05 02:51:17;;;;;;;0.10;0.10;;;;;;;4.03;89.99;97995.13;2001974;80;21228;-73
2022/01/05 02:54:20;;;;;;;0.76;0.16;;;;;;;3.93;89.67;97996.84;2001864;81;20336;-73
2022/01/05 02:57:23;;;;;;;0.10;0.10;;;;;;;3.90;89.43;97994.28;2005373;80;20336;-72
2022/01/05 03:00:25;;;;;;;0.15;0.15;;;;;;;3.86;89.40;98008.00;2000379;78;20758;-73
2022/01/05 03:03:28;;;;;;;0.10;0.10;;;;;;;3.87;89.65;98021.69;2003767;81;20362;-73
2022/01/05 03:06:31;;;;;;;0.20;0.20;;;;;;;3.85;89.39;98026.81;2003569;81;21001;-72
2022/01/05 03:09:34;;;;;;;0.20;0.20;;;;;;;3.85;89.56;98037.09;2004313;80;20324;-73
2022/01/05 03:12:40;;;;;;;0.30;0.10;;;;;;;3.83;89.15;98053.34;2004367;81;20323;-72
2022/01/05 03:15:42;;;;;;;0.10;0.10;;;;;;;3.77;88.98;98054.22;2002008;78;23095;-72
2022/01/05 03:18:45;;;;;;;0.39;0.17;;;;;;;3.75;88.89;98049.91;2005169;80;20849;-73
2022/01/05 03:21:47;;;;;;;0.30;0.20;;;;;;;3.74;88.75;98067.00;2004065;81;20342;-72
2022/01/05 03:24:50;;;;;;;0.20;0.20;;;;;;;3.67;88.17;98072.16;2003451;81;20332;-72
2022/01/05 03:27:54;;;;;;;0.20;0.20;;;;;;;3.66;88.55;98081.56;2002288;81;21024;-72
2022/01/05 03:30:56;;;;;;;0.68;0.20;;;;;;;3.64;88.00;98081.56;2002388;78;21503;-72
2022/01/05 03:33:59;;;;;;;1.31;0.20;;;;;;;3.63;87.88;98089.25;2004407;80;20327;-72
2022/01/05 03:37:02;;;;;;;1.65;0.24;;;;;;;3.57;86.93;98117.47;2004054;81;20378;-72
2022/01/05 03:40:05;;;;;;;1.16;0.30;;;;;;;3.55;87.14;98119.16;2004102;81;20355;-73
2022/01/05 03:43:09;;;;;;;3.11;0.30;;;;;;;3.52;87.17;98116.59;2004221;81;20434;-72
2022/01/05 03:46:11;;;;;;;1.91;0.50;;;;;;;3.41;86.77;98131.97;2004828;78;20808;-72
2022/01/05 03:49:14;;;;;;;3.58;0.76;;;;;;;3.37;86.49;98139.63;2008989;80;20937;-72
2022/01/05 03:52:17;;;;;;;2.28;0.56;;;;;;;3.31;86.33;98164.41;2008761;80;20351;-72
2022/01/05 03:55:19;;;;;;;1.55;0.60;;;;;;;3.27;86.35;98174.66;2009300;80;20349;-72
2022/01/05 03:58:22;;;;;;;1.94;0.50;;;;;;;3.28;86.61;98171.25;2009166;80;20404;-72
2022/01/05 04:01:24;;;;;;;1.23;0.41;;;;;;;3.26;86.55;98189.19;2006713;77;23246;-72
2022/01/05 04:04:27;;;;;;;1.60;0.60;;;;;;;3.24;86.75;98201.16;2006305;80;20350;-72
2022/01/05 04:07:30;;;;;;;1.23;0.50;;;;;;;3.21;86.89;98213.94;2006989;80;20424;-72
2022/01/05 04:10:32;;;;;;;2.11;0.70;;;;;;;3.19;86.34;98212.22;2006481;80;20335;-72
2022/01/05 04:13:35;;;;;;;2.29;0.60;;;;;;;3.17;86.15;98219.06;2006837;80;20361;-72
2022/01/05 04:16:38;;;;;;;3.10;0.55;;;;;;;3.17;86.45;98224.19;2001821;78;36975;-72
2022/01/05 04:19:41;;;;;;;1.60;0.47;;;;;;;3.13;86.75;98240.41;2001195;81;20944;-72
2022/01/05 04:22:43;;;;;;;2.44;0.50;;;;;;;3.12;87.33;98231.84;2001053;80;21036;-72
2022/01/05 04:25:46;;;;;;;0.73;0.55;;;;;;;3.09;87.47;98228.41;2001666;81;20360;-72
2022/01/05 04:28:49;;;;;;;2.00;0.61;;;;;;;3.04;87.66;98236.91;2003193;81;20356;-72
2022/01/05 04:31:51;;;;;;;2.39;0.69;;;;;;;2.95;87.58;98247.13;2004213;77;22148;-72
2022/01/05 04:34:54;;;;;;;1.92;0.55;;;;;;;2.95;87.99;98243.69;2007742;80;20829;-72
2022/01/05 04:38:16;;;;;;;1.11;0.52;;;;;;;2.92;88.10;98264.19;2007580;80;20343;-72
2022/01/05 04:41:19;;;;;;;1.48;0.56;;;;;;;2.83;88.20;98258.97;2008486;80;20951;-72
2022/01/05 04:44:22;;;;;;;1.74;0.56;;;;;;;2.84;88.58;98260.69;2008510;80;20333;-72
2022/01/05 04:47:24;;;;;;;7.28;1.00;;;;;;;2.80;88.64;98266.66;2006626;77;21639;-72
2022/01/05 04:50:27;;;;;;;1.91;0.66;;;;;;;2.79;89.16;98273.47;2008617;80;20373;-72
2022/01/05 04:53:29;;;;;;;2.24;0.57;;;;;;;2.83;89.36;98287.19;2007774;80;20820;-72
2022/01/05 04:56:32;;;;;;;4.10;0.61;;;;;;;2.81;89.58;98289.72;2007758;80;20303;-72
2022/01/05 04:59:34;;;;;;;0.77;0.51;;;;;;;2.77;89.51;98293.13;2007773;80;20871;-72
2022/01/05 05:02:37;;;;;;;1.83;0.60;;;;;;;2.72;89.52;98299.91;2006179;77;22365;-72
2022/01/05 05:05:40;;;;;;;3.26;0.88;;;;;;;2.62;89.28;98303.22;2007853;80;20353;-72
2022/01/05 05:08:43;;;;;;;5.03;0.68;;;;;;;2.52;89.30;98311.69;2007541;80;20442;-72
2022/01/05 05:11:45;;;;;;;2.90;0.94;;;;;;;2.47;88.93;98319.28;2008053;80;20743;-72
2022/01/05 05:14:48;;;;;;;3.75;0.77;;;;;;;2.43;89.03;98328.66;2008119;80;20878;-72
2022/01/05 05:17:50;;;;;;;3.30;0.66;;;;;;;2.37;88.25;98318.34;2006493;77;26579;-72
2022/01/05 05:20:53;;;;;;;5.36;0.84;;;;;;;2.35;88.13;98329.44;2007907;80;20339;-72
2022/01/05 05:23:56;;;;;;;3.75;1.14;;;;;;;2.29;88.23;98329.34;2007827;80;20320;-72
2022/01/05 05:26:58;;;;;;;5.90;0.84;;;;;;;2.26;88.02;98337.84;2008127;80;20407;-72
2022/01/05 05:30:02;;;;;;;3.63;0.70;;;;;;;2.25;87.43;98337.84;2007278;80;20885;-72
2022/01/05 05:33:05;;;;;;;3.04;0.61;;;;;;;2.18;86.79;98330.94;1997686;78;20983;-72
2022/01/05 05:36:07;;;;;;;2.85;0.71;;;;;;;2.12;86.95;98341.94;1997197;81;20445;-72
2022/01/05 05:39:13;;;;;;;3.35;0.85;;;;;;;2.08;87.12;98342.75;1997368;81;20333;-72
2022/01/05 05:42:15;;;;;;;3.76;1.38;;;;;;;1.98;86.68;98346.94;1997266;81;20407;-72
2022/01/05 05:45:18;;;;;;;7.22;1.80;;;;;;;1.88;86.76;98357.00;1996369;78;21943;-72
2022/01/05 05:48:21;;;;;;;3.69;0.98;;;;;;;1.83;86.76;98358.66;2003440;81;20332;-72
2022/01/05 05:51:23;;;;;;;4.06;0.80;;;;;;;1.77;86.80;98375.63;2002423;80;20389;-72
2022/01/05 05:54:26;;;;;;;2.29;0.63;;;;;;;1.71;87.18;98382.38;2002860;81;20332;-72
2022/01/05 05:57:29;;;;;;;3.01;1.00;;;;;;;1.74;88.09;98382.41;2002218;80;20356;-72
2022/01/05 06:00:31;;;;;;;4.75;0.76;;;;;;;1.76;88.51;98390.97;2001860;77;20847;-72
2022/01/05 06:03:35;;;;;;;2.86;1.23;;;;;;;1.76;88.53;98404.63;2007590;80;20962;-71
2022/01/05 06:06:38;;;;;;;4.21;0.80;;;;;;;1.75;88.77;98404.59;2007923;80;20347;-71
2022/01/05 06:09:40;;;;;;;4.36;1.08;;;;;;;1.69;87.78;98413.06;2007518;80;20811;-71
2022/01/05 06:12:43;;;;;;;2.59;0.85;;;;;;;1.67;88.00;98422.41;2008135;80;20337;-71
2022/01/05 06:15:45;;;;;;;5.22;0.90;;;;;;;1.66;87.87;98423.25;2006738;77;23806;-71
2022/01/05 06:18:48;;;;;;;3.40;0.81;;;;;;;1.58;87.44;98435.03;2007988;80;20336;-71
2022/01/05 06:21:51;;;;;;;3.34;0.94;;;;;;;1.52;87.19;98440.06;2007005;80;20347;-71
2022/01/05 06:24:53;;;;;;;4.84;1.05;;;;;;;1.48;87.10;98451.09;2006636;80;20389;-71
2022/01/05 06:27:56;;;;;;;3.36;0.81;;;;;;;1.38;86.35;98447.50;2007725;80;20327;-71
2022/01/05 06:30:59;;;;;;;6.44;1.16;;;;;;;1.31;86.49;98460.19;2005300;77;21173;-71
2022/01/05 06:34:01;;;;;;;6.19;0.86;;;;;;;1.29;86.46;98464.41;2007348;80;20798;-71
2022/01/05 06:37:04;;;;;;;4.40;1.73;;;;;;;1.23;86.00;98474.50;2007015;80;20798;-71
2022/01/05 06:40:08;;;;;;;7.21;1.00;;;;;;;1.19;86.29;98477.03;2007646;80;20374;-71
2022/01/05 06:43:10;;;;;;;2.80;0.85;;;;;;;1.17;86.49;98485.50;2007197;80;20400;-71
2022/01/05 06:46:13;;;;;;;4.30;0.76;;;;;;;1.10;86.26;98479.44;2003568;78;22889;-71
2022/01/05 06:49:16;;;;;;;4.19;0.80;;;;;;;1.07;86.17;98491.25;2001887;81;20943;-71
2022/01/05 06:52:18;;;;;;;4.53;0.91;;;;;;;1.05;85.88;98491.25;2001602;81;20353;-72
2022/01/05 06:55:22;;;;;;;4.88;0.96;;;;;;;1.06;86.16;98498.06;2002679;81;20321;-71
2022/01/05 06:58:24;;;;;;;5.64;0.80;;;;;;;1.06;86.28;98505.75;2002725;81;20421;-71
2022/01/05 07:01:27;;;;;;;3.10;0.77;;;;;;;1.10;86.04;98510.09;2000090;78;22464;-70
2022/01/05 07:04:30;;;;;;;6.63;1.50;;;;;;;1.13;86.20;98517.81;2002804;81;20440;-70
2022/01/05 07:07:33;;;;;;;2.72;0.80;;;;;;;1.17;86.27;98521.28;2002094;81;20574;-70
2022/01/05 07:10:36;;;;;;;5.99;1.00;;;;;;;1.23;86.26;98528.22;2002348;81;20359;-71
2022/01/05 07:13:38;;;;;;;5.32;1.27;;;;;;;1.26;85.87;98538.47;1998345;81;20940;-70
2022/01/05 07:16:41;;;;;;;5.65;0.88;;;;;;;1.28;85.96;98544.53;1999969;77;21106;-70
2022/01/05 07:19:43;;;;;;;7.00;1.20;;;;;;;1.29;85.32;98542.00;2002153;81;20359;-70
2022/01/05 07:22:46;;;;;;;5.54;1.83;;;;;;;1.32;85.02;98544.59;2005216;80;20420;-70
2022/01/05 07:25:48;;;;;;;8.21;1.10;;;;;;;1.34;85.02;98548.03;2002685;81;20721;-71
2022/01/05 07:28:51;;;;;;;4.64;1.24;;;;;;;1.35;85.06;98549.75;2002321;81;20352;-72
2022/01/05 07:31:54;;;;;;;6.88;1.45;;;;;;;1.31;85.34;98553.09;2003837;78;23724;-71
2022/01/05 07:34:57;;;;;;;4.38;0.90;;;;;;;1.23;85.34;98557.19;2006515;80;20335;-71
2022/01/05 07:37:59;;;;;;;4.98;1.19;;;;;;;1.19;85.06;98558.84;2006846;80;20346;-70
2022/01/05 07:41:02;;;;;;;2.86;0.95;;;;;;;1.18;84.89;98559.66;2007591;80;20285;-70
2022/01/05 07:44:06;;;;;;;8.55;1.10;;;;;;;1.15;84.76;98572.41;2007149;80;20925;-70
2022/01/05 07:47:08;;;;;;;8.23;1.13;;;;;;;1.12;85.30;98590.25;2005260;77;21525;-70
2022/01/05 07:50:14;;;;;;;8.36;0.98;;;;;;;1.10;85.43;98589.34;2006661;80;20327;-72
2022/01/05 07:53:17;;;;;;;13.16;1.60;;;;;;;1.10;85.77;98589.34;2007692;80;20339;-72
2022/01/05 07:56:19;;;;;;;4.85;1.35;;;;;;;1.10;86.26;98585.94;2003817;80;20331;-71
2022/01/05 07:59:22;;;;;;;6.59;1.31;;;;;;;1.07;86.16;98583.28;2008354;80;20303;-72
2022/01/05 08:02:25;;;;;;;6.00;1.67;;;;;;;1.09;86.22;98584.22;2001787;77;21340;-71
2022/01/05 08:05:28;;;;;;;9.51;1.29;;;;;;;1.10;86.30;98591.91;2003263;81;20834;-72
2022/01/05 08:08:31;;;;;;;6.92;1.30;;;;;;;1.13;86.60;98589.41;2002236;81;20339;-72
2022/01/05 08:11:34;;;;;;;5.24;1.35;;;;;;;1.15;86.57;98604.78;2001358;81;20174;-73
2022/01/05 08:14:36;;;;;;;9.96;1.42;;;;;;;1.14;86.53;98605.59;2001108;81;20329;-71
2022/01/05 08:17:40;;;;;;;7.79;1.52;;;;;;;1.22;86.77;98616.84;1999706;78;24749;-71
2022/01/05 08:20:43;;;;;;;4.64;1.41;;;;;;;1.28;86.81;98631.47;2001336;81;20369;-72
2022/01/05 08:23:46;;;;;;;6.06;1.16;;;;;;;1.39;87.00;98633.38;2001028;81;20352;-72
2022/01/05 08:26:48;;;;;;;6.32;0.98;;;;;;;1.55;86.77;98637.09;2001386;81;20360;-71
2022/01/05 08:29:51;;;;;;;10.09;1.56;;;;;;;1.72;85.85;98637.41;2001293;80;20786;-72
2022/01/05 08:32:53;;;;;;;8.76;1.71;;;;;;;1.88;85.58;98643.66;2000678;78;23226;-72
2022/01/05 08:35:56;;;;;;;5.81;1.65;;;;;;;2.06;85.13;98649.13;2001333;81;20356;-72
2022/01/05 08:39:00;;;;;;;8.14;1.41;;;;;;;2.22;84.15;98655.34;2001253;81;20481;-71
2022/01/05 08:42:03;;;;;;;12.13;1.42;;;;;;;2.29;83.98;98669.97;2000640;80;20344;-71
2022/01/05 08:45:07;;;;;;;5.93;1.42;;;;;;;2.18;82.71;98667.25;1999649;80;20469;-71
2022/01/05 08:48:10;;;;;;;10.45;1.84;;;;;;;2.12;82.51;98677.38;2000571;77;21956;-72
2022/01/05 08:51:13;;;;;;;7.50;1.36;;;;;;;2.09;82.45;98677.31;1996345;81;20540;-72
2022/01/05 08:54:16;;;;;;;6.51;1.49;;;;;;;2.09;83.21;98690.13;1997310;81;20338;-71
2022/01/05 08:57:19;;;;;;;8.40;1.10;;;;;;;2.04;82.69;98682.38;2000546;81;21328;-70
2022/01/05 09:00:22;;;;;;;12.26;1.66;;;;;;;2.02;82.20;98690.88;1998426;78;25200;-71
2022/01/05 09:03:24;;;;;;;9.14;1.59;;;;;;;1.99;81.81;98696.78;1999759;81;20354;-71
2022/01/05 09:06:27;;;;;;;6.95;1.58;;;;;;;2.01;81.67;98701.94;1999920;81;20381;-71
2022/01/05 09:09:30;;;;;;;8.34;1.15;;;;;;;1.99;80.15;98693.38;2000913;81;20340;-71
2022/01/05 09:12:33;;;;;;;5.32;0.96;;;;;;;2.00;80.44;98700.22;2002301;81;20383;-71
2022/01/05 09:15:36;;;;;;;6.19;1.00;;;;;;;2.00;80.30;98697.66;2000399;78;24846;-71
2022/01/05 09:18:39;;;;;;;5.95;1.13;;;;;;;1.98;78.58;98699.34;2001931;81;21193;-71
2022/01/05 09:21:41;;;;;;;6.05;0.85;;;;;;;1.94;77.34;98718.88;2002644;81;20364;-71
2022/01/05 09:24:44;;;;;;;5.09;1.02;;;;;;;1.94;77.48;98723.13;2002452;81;20321;-71
2022/01/05 09:27:47;;;;;;;4.06;0.96;;;;;;;1.99;78.30;98718.97;2002035;81;20355;-71
2022/01/05 09:30:50;;;;;;;5.19;0.91;;;;;;;2.05;78.53;98724.19;2003604;78;22462;-71
2022/01/05 09:33:52;;;;;;;5.06;0.89;;;;;;;2.11;78.23;98729.41;2002449;81;20328;-71
2022/01/05 09:36:59;;;;;;;8.26;1.00;;;;;;;2.13;78.19;98731.16;2003221;80;20332;-72
2022/01/05 09:43:25;;;;;;;8.14;1.29;;;;;;;2.21;78.08;98735.59;2002524;81;20324;-72
2022/01/05 09:46:43;;;;;;;2.64;0.74;;;;;;;2.23;77.59;98734.78;2000629;77;23421;-72
2022/01/05 09:49:58;;;;;;;6.28;1.00;;;;;;;2.25;78.17;98745.03;2002663;81;20386;-72
2022/01/05 09:53:00;;;;;;;3.78;0.88;;;;;;;2.28;77.87;98757.91;2002556;81;21203;-72
2022/01/05 09:56:05;;;;;;;5.80;0.98;;;;;;;2.36;78.35;98764.03;2001921;81;20387;-72
2022/01/05 09:59:08;;;;;;;10.52;1.04;;;;;;;2.30;76.95;98757.09;2001567;81;20340;-72
2022/01/05 10:02:12;;;;;;;5.70;1.00;;;;;;;2.29;76.35;98757.94;2003126;77;21693;-72
2022/01/05 10:05:16;;;;;;;6.22;1.00;;;;;;;2.28;75.80;98761.31;2006891;80;20333;-72
2022/01/05 10:08:19;;;;;;;4.39;0.89;;;;;;;2.38;77.05;98770.06;2006282;80;21335;-72
2022/01/05 10:11:23;;;;;;;2.85;1.11;;;;;;;2.45;78.18;98784.69;2006384;80;20328;-72
2022/01/05 10:14:26;;;;;;;5.64;0.94;;;;;;;2.54;78.84;98773.75;2006052;80;20335;-72
2022/01/05 10:17:30;;;;;;;5.14;0.80;;;;;;;2.63;79.07;98764.50;1999566;77;22890;-71
2022/01/05 10:20:33;;;;;;;4.64;0.80;;;;;;;2.62;77.22;98770.47;2000062;81;20455;-72
2022/01/05 10:23:41;;;;;;;3.58;0.94;;;;;;;2.71;77.50;98772.34;2004316;80;20338;-72
2022/01/05 10:26:44;;;;;;;6.38;1.15;;;;;;;2.77;77.22;98777.56;2000619;80;20392;-72
2022/01/05 10:30:04;;;;;;;7.13;1.10;;;;;;;2.88;76.67;98776.03;2000544;81;20444;-72
2022/01/05 10:33:07;;;;;;;4.53;0.90;;;;;;;2.92;75.07;98787.22;1991265;78;50761;-73
2022/01/05 10:36:10;;;;;;;6.68;0.93;;;;;;;2.93;74.06;98784.66;1985864;81;20332;-72
2022/01/05 10:39:14;;;;;;;7.41;1.20;;;;;;;2.96;73.99;98787.28;1988246;81;20361;-72
2022/01/05 10:42:17;;;;;;;4.14;1.05;;;;;;;2.97;74.12;98796.69;1984407;81;20373;-72
2022/01/05 10:45:21;;;;;;;6.18;1.01;;;;;;;3.00;73.63;98786.47;1984147;78;23303;-73
2022/01/05 10:48:25;;;;;;;6.09;1.42;;;;;;;3.09;73.82;98782.34;1989647;81;20358;-72
2022/01/05 10:51:29;;;;;;;4.40;0.98;;;;;;;3.08;73.17;98772.94;1990972;81;20768;-72
2022/01/05 10:54:32;;;;;;;5.03;0.91;;;;;;;3.12;73.54;98772.13;1990576;81;20421;-72
2022/01/05 10:57:35;;;;;;;7.41;1.29;;;;;;;3.15;73.13;98790.13;1989712;81;20326;-72
2022/01/05 11:00:42;;;;;;;8.05;1.13;;;;;;;3.19;72.42;98779.06;1988608;78;21541;-72
2022/01/05 11:03:45;;;;;;;7.70;1.00;;;;;;;3.37;73.78;98787.03;1990370;81;20468;-72
2022/01/05 11:06:54;;;;;;;4.07;0.90;;;;;;;3.49;73.36;98773.53;1990839;81;20455;-72
2022/01/05 11:10:01;;;;;;;3.63;0.90;;;;;;;3.47;72.49;98786.34;1990487;81;20358;-72
2022/01/05 11:13:03;;;;;;;3.21;0.89;;;;;;;3.42;71.53;98785.41;1990390;81;20199;-72
2022/01/05 11:16:06;;;;;;;4.01;1.04;;;;;;;3.43;72.05;98788.84;1990962;77;21320;-72
2022/01/05 11:19:24;;;;;;;3.80;0.82;;;;;;;3.45;72.34;98793.16;1996130;81;20333;-72
2022/01/05 11:22:26;;;;;;;3.31;0.84;;;;;;;3.39;71.10;98794.75;1996377;81;20444;-72
2022/01/05 11:25:29;;;;;;;6.03;0.77;;;;;;;3.32;71.05;98792.09;1995767;81;20309;-72
2022/01/05 11:28:32;;;;;;;4.26;0.90;;;;;;;3.33;71.64;98792.97;1998707;81;20338;-72
2022/01/05 11:31:34;;;;;;;4.71;0.95;;;;;;;3.45;72.97;98787.16;1994609;78;24254;-72
2022/01/05 11:34:37;;;;;;;3.34;0.76;;;;;;;3.48;71.94;98775.22;2000787;80;20384;-72
2022/01/05 11:37:40;;;;;;;5.44;0.82;;;;;;;3.54;72.41;98785.56;2006093;80;20327;-72
2022/01/05 11:40:51;;;;;;;9.46;1.08;;;;;;;3.43;70.53;98781.16;2006493;80;20825;-72
2022/01/05 11:43:54;;;;;;;3.40;0.99;;;;;;;3.44;71.61;98781.16;2006449;80;20793;-73
2022/01/05 11:46:57;;;;;;;4.43;0.93;;;;;;;3.47;71.45;98783.75;2006164;77;22473;-72
2022/01/05 11:50:26;;;;;;;3.61;0.59;;;;;;;3.51;72.13;98780.41;2006681;80;20312;-73
2022/01/05 11:53:37;;;;;;;5.65;0.90;;;;;;;3.54;71.46;98782.13;2005690;80;20776;-73
2022/01/05 11:56:47;;;;;;;3.16;1.05;;;;;;;3.57;70.62;98784.75;2005398;80;20213;-72
2022/01/05 11:59:50;;;;;;;3.99;0.93;;;;;;;3.57;70.69;98801.00;2005289;80;20335;-74
2022/01/05 12:02:52;;;;;;;5.80;1.02;;;;;;;3.52;70.71;98794.09;1998872;78;21574;-74
2022/01/05 12:06:07;;;;;;;7.04;0.64;;;;;;;3.48;70.62;98800.88;1999794;81;20328;-73
2022/01/05 12:09:23;;;;;;;3.96;0.96;;;;;;;3.42;70.88;98805.94;2000585;81;20332;-74
2022/01/05 12:12:32;;;;;;;5.28;0.86;;;;;;;3.42;69.83;98810.22;2000671;81;20464;-73
2022/01/05 12:15:44;;;;;;;6.06;0.76;;;;;;;3.38;70.15;98814.41;1999408;78;22164;-73
2022/01/05 12:19:07;;;;;;;4.06;0.82;;;;;;;3.33;70.62;98822.06;2000581;81;20412;-73
2022/01/05 12:22:19;;;;;;;4.76;0.91;;;;;;;3.40;71.56;98806.72;2000528;81;20344;-74
2022/01/05 12:25:22;;;;;;;4.57;0.86;;;;;;;3.41;71.17;98809.34;2000600;81;20345;-75
2022/01/05 12:28:30;;;;;;;5.04;1.17;;;;;;;3.45;71.45;98826.50;2000934;81;20452;-73
2022/01/05 12:32:03;;;;;;;3.67;0.75;;;;;;;3.46;70.77;98817.09;1998236;78;23914;-73
2022/01/05 12:35:14;;;;;;;3.42;0.66;;;;;;;3.52;71.05;98828.31;1997770;81;20352;-73
2022/01/05 12:38:35;;;;;;;4.30;0.93;;;;;;;3.45;68.26;98835.91;1999538;81;20345;-73
2022/01/05 12:41:41;;;;;;;8.16;0.95;;;;;;;3.38;67.90;98831.50;2000337;81;20590;-73
2022/01/05 12:44:43;;;;;;;4.16;0.76;;;;;;;3.36;68.71;98836.63;2000420;81;20725;-73
2022/01/05 12:47:46;;;;;;;5.31;0.70;;;;;;;3.24;68.31;98850.16;1997397;78;22148;-73
2022/01/05 12:50:49;;;;;;;3.83;0.71;;;;;;;3.18;68.43;98846.59;1999849;81;20332;-73
2022/01/05 12:54:11;;;;;;;4.19;0.52;;;;;;;3.17;68.94;98850.00;1999745;81;20313;-73
2022/01/05 12:57:17;;;;;;;3.40;0.86;;;;;;;3.14;69.26;98863.66;2000228;81;20341;-72
2022/01/05 13:00:20;;;;;;;4.51;0.64;;;;;;;3.16;70.00;98861.09;1996576;78;80123;-73
2022/01/05 13:03:32;;;;;;;5.72;0.80;;;;;;;3.18;70.31;98864.56;1995633;81;21001;-72
2022/01/05 13:06:37;;;;;;;6.26;0.75;;;;;;;3.24;71.84;98867.25;1998848;81;20410;-73
2022/01/05 13:10:09;;;;;;;4.38;0.94;;;;;;;3.26;71.54;98869.00;1999857;81;20444;-73
2022/01/05 13:13:12;;;;;;;3.06;0.80;;;;;;;3.25;70.49;98884.34;1995673;81;20398;-73
2022/01/05 13:16:15;;;;;;;2.80;0.51;;;;;;;3.24;71.13;98878.38;1996919;78;22928;-73
2022/01/05 13:19:22;;;;;;;4.61;0.63;;;;;;;3.21;70.60;98885.97;1999302;81;20313;-73
2022/01/05 13:22:29;;;;;;;2.50;0.84;;;;;;;3.18;70.21;98878.25;1999080;81;20461;-73
2022/01/05 13:25:33;;;;;;;4.07;0.88;;;;;;;3.15;70.03;98873.06;1998155;81;20320;-73
2022/01/05 13:28:37;;;;;;;2.46;0.60;;;;;;;3.07;69.69;98871.22;1998702;81;20345;-73
2022/01/05 13:31:53;;;;;;;5.10;0.84;;;;;;;3.06;70.09;98875.50;2002112;77;21609;-73
2022/01/05 13:35:09;;;;;;;6.35;0.80;;;;;;;3.01;69.50;98877.09;2003922;80;20424;-73
2022/01/05 13:38:16;;;;;;;3.97;0.60;;;;;;;3.01;69.99;98872.81;2005256;80;20405;-73
2022/01/05 13:41:20;;;;;;;5.93;0.93;;;;;;;3.03;70.52;98873.72;2004721;80;20347;-73
2022/01/05 13:44:23;;;;;;;3.28;0.60;;;;;;;2.99;69.73;98866.81;2004986;80;20336;-73
2022/01/05 13:47:26;;;;;;;3.99;0.73;;;;;;;3.00;69.94;98868.53;2003241;77;21463;-73
2022/01/05 13:50:39;;;;;;;4.11;0.74;;;;;;;2.99;69.60;98868.50;2004225;80;21131;-73
2022/01/05 13:53:44;;;;;;;5.49;0.63;;;;;;;3.00;70.50;98865.97;2005407;80;20335;-74
2022/01/05 13:56:46;;;;;;;4.66;0.85;;;;;;;3.04;71.38;98865.19;2008779;80;20415;-75
2022/01/05 13:59:49;;;;;;;4.38;1.30;;;;;;;3.04;71.35;98856.63;2005318;80;20384;-73
2022/01/05 14:02:51;;;;;;;2.76;0.74;;;;;;;3.06;71.24;98857.53;1997141;78;24195;-73
2022/01/05 14:05:54;;;;;;;4.56;0.69;;;;;;;3.07;71.78;98859.25;1999342;81;20893;-73
2022/01/05 14:09:03;;;;;;;4.55;0.89;;;;;;;3.08;71.41;98863.56;1998795;81;20378;-73
2022/01/05 14:12:27;;;;;;;3.75;0.80;;;;;;;2.99;70.74;98881.34;1999406;80;20324;-72
2022/01/05 14:15:30;;;;;;;3.00;0.65;;;;;;;3.01;71.68;98874.53;1997406;78;21496;-71
2022/01/05 14:18:45;;;;;;;3.99;0.70;;;;;;;3.01;71.82;98879.66;1998821;81;20578;-72
2022/01/05 14:21:48;;;;;;;5.19;0.70;;;;;;;2.97;71.32;98885.56;1999396;81;20953;-71
2022/01/05 14:24:56;;;;;;;7.56;0.80;;;;;;;2.99;71.89;98901.84;1999161;80;20340;-71
2022/01/05 14:28:09;;;;;;;2.86;0.60;;;;;;;2.98;71.81;98907.81;1998724;81;20487;-71
2022/01/05 14:31:14;;;;;;;4.03;0.82;;;;;;;2.96;72.19;98900.09;1997484;78;20736;-72
2022/01/05 14:34:20;;;;;;;5.35;0.70;;;;;;;2.99;72.71;98904.41;1999131;81;20397;-72
2022/01/05 14:37:22;;;;;;;5.20;0.79;;;;;;;2.98;72.34;98902.69;1998007;81;20366;-71
2022/01/05 14:40:28;;;;;;;4.10;0.71;;;;;;;2.96;72.62;98900.09;1997582;81;21034;-72